sensor_id;sensor_type;location;lat;lon;timestamp;temperature;humidity
3614;DHT22;1821;50.936;6.854;2023-09-07T00:00:40;18.30;99.90
3614;DHT22;1821;50.936;6.854;2023-09-07T00:01:22;18.30;99.90
3614;DHT22;1821;50.936;6.854;2023-09-07T00:02:04;18.30;99.90
3614;DHT22;1821;50.936;6.854;2023-09-07T00:02:46;18.20;99.90
3614;DHT22;1821;50.936;6.854;2023-09-07T00:03:28;18.30;99.90
3614;DHT22;1821;50.936;6.854;2023-09-07T00:04:10;18.20;99.90
3614;DHT22;1821;50.936;6.854;2023-09-07T00:04:55;18.30;99.90
3614;DHT22;1821;50.936;6.854;2023-09-07T00:05:37;18.20;99.90
3614;DHT22;1821;50.936;6.854;2023-09-07T00:06:19;18.30;99.90
3614;DHT22;1821;50.936;6.854;2023-09-07T00:07:01;18.30;99.90
3614;DHT22;1821;50.936;6.854;2023-09-07T00:07:43;18.20;99.90
3614;DHT22;1821;50.936;6.854;2023-09-07T00:08:25;18.30;99.90
3614;DHT22;1821;50.936;6.854;2023-09-07T00:09:10;18.30;99.90
3614;DHT22;1821;50.936;6.854;2023-09-07T00:09:53;18.30;99.90
3614;DHT22;1821;50.936;6.854;2023-09-07T00:11:18;18.30;99.90
3614;DHT22;1821;50.936;6.854;2023-09-07T00:12:00;18.30;99.90
3614;DHT22;1821;50.936;6.854;2023-09-07T00:12:43;18.30;99.90
3614;DHT22;1821;50.936;6.854;2023-09-07T00:14:07;18.30;99.90
3614;DHT22;1821;50.936;6.854;2023-09-07T00:14:49;18.30;99.90
3614;DHT22;1821;50.936;6.854;2023-09-07T00:15:37;18.30;99.90
3614;DHT22;1821;50.936;6.854;2023-09-07T00:16:19;18.30;99.90
3614;DHT22;1821;50.936;6.854;2023-09-07T00:17:04;18.30;99.90
3614;DHT22;1821;50.936;6.854;2023-09-07T00:17:49;18.20;99.90
3614;DHT22;1821;50.936;6.854;2023-09-07T00:18:33;18.20;99.90
3614;DHT22;1821;50.936;6.854;2023-09-07T00:19:14;18.20;99.90
3614;DHT22;1821;50.936;6.854;2023-09-07T00:19:56;18.30;99.90
3614;DHT22;1821;50.936;6.854;2023-09-07T00:20:40;18.20;99.90
3614;DHT22;1821;50.936;6.854;2023-09-07T00:22:47;18.20;99.90
3614;DHT22;1821;50.936;6.854;2023-09-07T00:23:32;18.20;99.90
3614;DHT22;1821;50.936;6.854;2023-09-07T00:24:57;18.20;99.90
3614;DHT22;1821;50.936;6.854;2023-09-07T00:25:39;18.20;99.90
3614;DHT22;1821;50.936;6.854;2023-09-07T00:26:21;18.30;99.90
3614;DHT22;1821;50.936;6.854;2023-09-07T00:27:03;18.30;99.90
3614;DHT22;1821;50.936;6.854;2023-09-07T00:27:47;18.30;99.90
3614;DHT22;1821;50.936;6.854;2023-09-07T00:28:29;18.30;99.90
3614;DHT22;1821;50.936;6.854;2023-09-07T00:29:12;18.30;99.90
3614;DHT22;1821;50.936;6.854;2023-09-07T00:30:36;18.20;99.90
3614;DHT22;1821;50.936;6.854;2023-09-07T00:31:18;18.20;99.90
3614;DHT22;1821;50.936;6.854;2023-09-07T00:32:01;18.20;99.90
3614;DHT22;1821;50.936;6.854;2023-09-07T00:32:43;18.20;99.90
3614;DHT22;1821;50.936;6.854;2023-09-07T00:33:25;18.20;99.90
3614;DHT22;1821;50.936;6.854;2023-09-07T00:34:07;18.10;99.90
3614;DHT22;1821;50.936;6.854;2023-09-07T00:34:49;18.20;99.90
3614;DHT22;1821;50.936;6.854;2023-09-07T00:35:31;18.20;99.90
3614;DHT22;1821;50.936;6.854;2023-09-07T00:36:13;18.20;99.90
3614;DHT22;1821;50.936;6.854;2023-09-07T00:36:57;18.20;99.90
3614;DHT22;1821;50.936;6.854;2023-09-07T00:38:21;18.30;99.90
3614;DHT22;1821;50.936;6.854;2023-09-07T00:39:47;18.40;99.90
3614;DHT22;1821;50.936;6.854;2023-09-07T00:40:30;18.40;99.90
3614;DHT22;1821;50.936;6.854;2023-09-07T00:41:13;18.40;99.90
3614;DHT22;1821;50.936;6.854;2023-09-07T00:41:55;18.40;99.90
3614;DHT22;1821;50.936;6.854;2023-09-07T00:42:37;18.40;99.90
3614;DHT22;1821;50.936;6.854;2023-09-07T00:43:19;18.30;99.90
3614;DHT22;1821;50.936;6.854;2023-09-07T00:44:44;18.40;99.90
3614;DHT22;1821;50.936;6.854;2023-09-07T00:46:09;18.50;99.90
3614;DHT22;1821;50.936;6.854;2023-09-07T00:46:51;18.50;99.90
3614;DHT22;1821;50.936;6.854;2023-09-07T00:47:34;18.50;99.90
3614;DHT22;1821;50.936;6.854;2023-09-07T00:48:19;18.50;99.90
3614;DHT22;1821;50.936;6.854;2023-09-07T00:49:02;18.50;99.90
3614;DHT22;1821;50.936;6.854;2023-09-07T00:50:29;18.60;99.90
3614;DHT22;1821;50.936;6.854;2023-09-07T00:51:11;18.70;99.90
3614;DHT22;1821;50.936;6.854;2023-09-07T00:51:53;18.60;99.90
3614;DHT22;1821;50.936;6.854;2023-09-07T00:52:36;18.60;99.90
3614;DHT22;1821;50.936;6.854;2023-09-07T00:53:23;18.70;99.90
3614;DHT22;1821;50.936;6.854;2023-09-07T00:54:07;18.70;99.90
3614;DHT22;1821;50.936;6.854;2023-09-07T00:56:18;18.60;99.90
3614;DHT22;1821;50.936;6.854;2023-09-07T00:57:01;18.60;99.90
3614;DHT22;1821;50.936;6.854;2023-09-07T00:57:44;18.70;99.90
3614;DHT22;1821;50.936;6.854;2023-09-07T00:58:26;18.70;99.90
3614;DHT22;1821;50.936;6.854;2023-09-07T00:59:11;18.80;99.90
3614;DHT22;1821;50.936;6.854;2023-09-07T00:59:54;18.70;99.90
3614;DHT22;1821;50.936;6.854;2023-09-07T01:00:36;18.70;99.90
3614;DHT22;1821;50.936;6.854;2023-09-07T01:01:18;18.60;99.90
3614;DHT22;1821;50.936;6.854;2023-09-07T01:02:00;18.70;99.90
3614;DHT22;1821;50.936;6.854;2023-09-07T01:02:43;18.70;99.90
3614;DHT22;1821;50.936;6.854;2023-09-07T01:03:28;18.80;99.90
3614;DHT22;1821;50.936;6.854;2023-09-07T01:04:11;18.70;99.90
3614;DHT22;1821;50.936;6.854;2023-09-07T01:04:53;18.80;99.90
3614;DHT22;1821;50.936;6.854;2023-09-07T01:07:24;18.80;99.90
3614;DHT22;1821;50.936;6.854;2023-09-07T01:08:12;18.70;99.90
3614;DHT22;1821;50.936;6.854;2023-09-07T01:09:06;18.70;99.90
3614;DHT22;1821;50.936;6.854;2023-09-07T01:09:54;18.70;99.90
3614;DHT22;1821;50.936;6.854;2023-09-07T01:10:37;18.70;99.90
3614;DHT22;1821;50.936;6.854;2023-09-07T01:11:20;18.70;99.90
3614;DHT22;1821;50.936;6.854;2023-09-07T01:12:05;18.80;99.90
3614;DHT22;1821;50.936;6.854;2023-09-07T01:14:17;18.70;99.90
3614;DHT22;1821;50.936;6.854;2023-09-07T01:14:59;18.70;99.90
3614;DHT22;1821;50.936;6.854;2023-09-07T01:15:42;18.70;99.90
3614;DHT22;1821;50.936;6.854;2023-09-07T01:16:24;18.70;99.90
3614;DHT22;1821;50.936;6.854;2023-09-07T01:17:49;18.70;99.90
3614;DHT22;1821;50.936;6.854;2023-09-07T01:18:32;18.70;99.90
3614;DHT22;1821;50.936;6.854;2023-09-07T01:19:14;18.70;99.90
3614;DHT22;1821;50.936;6.854;2023-09-07T01:20:42;18.60;99.90
3614;DHT22;1821;50.936;6.854;2023-09-07T01:21:26;18.60;99.90
3614;DHT22;1821;50.936;6.854;2023-09-07T01:22:10;18.60;99.90
3614;DHT22;1821;50.936;6.854;2023-09-07T01:22:53;18.60;99.90
3614;DHT22;1821;50.936;6.854;2023-09-07T01:24:18;18.70;99.90
3614;DHT22;1821;50.936;6.854;2023-09-07T01:25:01;18.60;99.90
3614;DHT22;1821;50.936;6.854;2023-09-07T01:25:44;18.60;99.90
3614;DHT22;1821;50.936;6.854;2023-09-07T01:26:26;18.60;99.90
3614;DHT22;1821;50.936;6.854;2023-09-07T01:27:08;18.60;99.90
3614;DHT22;1821;50.936;6.854;2023-09-07T01:27:50;18.60;99.90
3614;DHT22;1821;50.936;6.854;2023-09-07T01:28:33;18.60;99.90
3614;DHT22;1821;50.936;6.854;2023-09-07T01:29:15;18.60;99.90
3614;DHT22;1821;50.936;6.854;2023-09-07T01:30:01;18.50;99.90
3614;DHT22;1821;50.936;6.854;2023-09-07T01:30:45;18.60;99.90
3614;DHT22;1821;50.936;6.854;2023-09-07T01:31:27;18.60;99.90
3614;DHT22;1821;50.936;6.854;2023-09-07T01:32:10;18.50;99.90
3614;DHT22;1821;50.936;6.854;2023-09-07T01:32:52;18.50;99.90
3614;DHT22;1821;50.936;6.854;2023-09-07T01:33:34;18.50;99.90
3614;DHT22;1821;50.936;6.854;2023-09-07T01:34:16;18.50;99.90
3614;DHT22;1821;50.936;6.854;2023-09-07T01:34:59;18.50;99.90
3614;DHT22;1821;50.936;6.854;2023-09-07T01:36:25;18.40;99.90
3614;DHT22;1821;50.936;6.854;2023-09-07T01:37:07;18.30;99.90
3614;DHT22;1821;50.936;6.854;2023-09-07T01:37:49;18.40;99.90
3614;DHT22;1821;50.936;6.854;2023-09-07T01:38:31;18.40;99.90
3614;DHT22;1821;50.936;6.854;2023-09-07T01:39:14;18.30;99.90
3614;DHT22;1821;50.936;6.854;2023-09-07T01:39:56;18.30;99.90
3614;DHT22;1821;50.936;6.854;2023-09-07T01:40:38;18.20;99.90
3614;DHT22;1821;50.936;6.854;2023-09-07T01:41:22;18.20;99.90
3614;DHT22;1821;50.936;6.854;2023-09-07T01:42:04;18.20;99.90
3614;DHT22;1821;50.936;6.854;2023-09-07T01:42:46;18.20;99.90
3614;DHT22;1821;50.936;6.854;2023-09-07T01:43:28;18.20;99.90
3614;DHT22;1821;50.936;6.854;2023-09-07T01:44:10;18.10;99.90
3614;DHT22;1821;50.936;6.854;2023-09-07T01:44:52;18.10;99.90
3614;DHT22;1821;50.936;6.854;2023-09-07T01:45:34;18.20;99.90
3614;DHT22;1821;50.936;6.854;2023-09-07T01:46:16;18.10;99.90
3614;DHT22;1821;50.936;6.854;2023-09-07T01:46:58;18.00;99.90
3614;DHT22;1821;50.936;6.854;2023-09-07T01:47:41;18.00;99.90
3614;DHT22;1821;50.936;6.854;2023-09-07T01:48:23;18.00;99.90
3614;DHT22;1821;50.936;6.854;2023-09-07T01:49:05;18.00;99.90
3614;DHT22;1821;50.936;6.854;2023-09-07T01:49:47;18.00;99.90
3614;DHT22;1821;50.936;6.854;2023-09-07T01:51:14;18.00;99.90
3614;DHT22;1821;50.936;6.854;2023-09-07T01:52:38;18.00;99.90
3614;DHT22;1821;50.936;6.854;2023-09-07T01:53:20;18.10;99.90
3614;DHT22;1821;50.936;6.854;2023-09-07T01:54:03;18.00;99.90
3614;DHT22;1821;50.936;6.854;2023-09-07T01:54:45;18.00;99.90
3614;DHT22;1821;50.936;6.854;2023-09-07T01:55:30;18.00;99.90
3614;DHT22;1821;50.936;6.854;2023-09-07T01:56:12;18.00;99.90
3614;DHT22;1821;50.936;6.854;2023-09-07T01:56:56;18.00;99.90
3614;DHT22;1821;50.936;6.854;2023-09-07T01:57:38;18.00;99.90
3614;DHT22;1821;50.936;6.854;2023-09-07T01:58:20;18.00;99.90
3614;DHT22;1821;50.936;6.854;2023-09-07T01:59:02;18.00;99.90
3614;DHT22;1821;50.936;6.854;2023-09-07T01:59:45;18.00;99.90
3614;DHT22;1821;50.936;6.854;2023-09-07T02:00:27;17.90;99.90
3614;DHT22;1821;50.936;6.854;2023-09-07T02:01:30;17.90;99.90
3614;DHT22;1821;50.936;6.854;2023-09-07T02:02:12;17.90;99.90
3614;DHT22;1821;50.936;6.854;2023-09-07T02:02:54;18.00;99.90
3614;DHT22;1821;50.936;6.854;2023-09-07T02:05:01;18.10;99.90
3614;DHT22;1821;50.936;6.854;2023-09-07T02:05:45;18.10;99.90
3614;DHT22;1821;50.936;6.854;2023-09-07T02:06:27;18.20;99.90
3614;DHT22;1821;50.936;6.854;2023-09-07T02:07:09;18.20;99.90
3614;DHT22;1821;50.936;6.854;2023-09-07T02:07:51;18.20;99.90
3614;DHT22;1821;50.936;6.854;2023-09-07T02:08:33;18.20;99.90
3614;DHT22;1821;50.936;6.854;2023-09-07T02:09:15;18.20;99.90
3614;DHT22;1821;50.936;6.854;2023-09-07T02:10:42;18.20;99.90
3614;DHT22;1821;50.936;6.854;2023-09-07T02:11:24;18.20;99.90
3614;DHT22;1821;50.936;6.854;2023-09-07T02:12:08;18.20;99.90
3614;DHT22;1821;50.936;6.854;2023-09-07T02:12:52;18.30;99.90
3614;DHT22;1821;50.936;6.854;2023-09-07T02:13:34;18.20;99.90
3614;DHT22;1821;50.936;6.854;2023-09-07T02:14:19;18.20;99.90
3614;DHT22;1821;50.936;6.854;2023-09-07T02:15:02;18.30;99.90
3614;DHT22;1821;50.936;6.854;2023-09-07T02:15:44;18.30;99.90
3614;DHT22;1821;50.936;6.854;2023-09-07T02:16:26;18.30;99.90
3614;DHT22;1821;50.936;6.854;2023-09-07T02:17:08;18.30;99.90
3614;DHT22;1821;50.936;6.854;2023-09-07T02:17:51;18.40;99.90
3614;DHT22;1821;50.936;6.854;2023-09-07T02:18:36;18.40;99.90
3614;DHT22;1821;50.936;6.854;2023-09-07T02:21:34;18.30;99.90
3614;DHT22;1821;50.936;6.854;2023-09-07T02:22:16;18.30;99.90
3614;DHT22;1821;50.936;6.854;2023-09-07T02:22:59;18.30;99.90
3614;DHT22;1821;50.936;6.854;2023-09-07T02:23:41;18.30;99.90
3614;DHT22;1821;50.936;6.854;2023-09-07T02:24:23;18.30;99.90
3614;DHT22;1821;50.936;6.854;2023-09-07T02:25:05;18.30;99.90
3614;DHT22;1821;50.936;6.854;2023-09-07T02:25:47;18.30;99.90
3614;DHT22;1821;50.936;6.854;2023-09-07T02:26:29;18.30;99.90
3614;DHT22;1821;50.936;6.854;2023-09-07T02:27:11;18.30;99.90
3614;DHT22;1821;50.936;6.854;2023-09-07T02:27:53;18.30;99.90
3614;DHT22;1821;50.936;6.854;2023-09-07T02:30:01;18.30;99.90
3614;DHT22;1821;50.936;6.854;2023-09-07T02:31:29;18.30;99.90
3614;DHT22;1821;50.936;6.854;2023-09-07T02:32:11;18.20;99.90
3614;DHT22;1821;50.936;6.854;2023-09-07T02:32:55;18.20;99.90
3614;DHT22;1821;50.936;6.854;2023-09-07T02:33:37;18.20;99.90
3614;DHT22;1821;50.936;6.854;2023-09-07T02:34:19;18.20;99.90
3614;DHT22;1821;50.936;6.854;2023-09-07T02:35:01;18.20;99.90
3614;DHT22;1821;50.936;6.854;2023-09-07T02:35:43;18.20;99.90
3614;DHT22;1821;50.936;6.854;2023-09-07T02:37:50;18.20;99.90
3614;DHT22;1821;50.936;6.854;2023-09-07T02:39:15;18.20;99.90
3614;DHT22;1821;50.936;6.854;2023-09-07T02:40:41;18.10;99.90
3614;DHT22;1821;50.936;6.854;2023-09-07T02:41:25;18.10;99.90
3614;DHT22;1821;50.936;6.854;2023-09-07T02:42:08;18.10;99.90
3614;DHT22;1821;50.936;6.854;2023-09-07T02:42:49;18.10;99.90
3614;DHT22;1821;50.936;6.854;2023-09-07T02:43:31;18.20;99.90
3614;DHT22;1821;50.936;6.854;2023-09-07T02:45:38;18.20;99.90
3614;DHT22;1821;50.936;6.854;2023-09-07T02:47:04;18.20;99.90
3614;DHT22;1821;50.936;6.854;2023-09-07T02:47:45;18.20;99.90
3614;DHT22;1821;50.936;6.854;2023-09-07T02:49:13;18.10;99.90
3614;DHT22;1821;50.936;6.854;2023-09-07T02:49:57;18.10;99.90
3614;DHT22;1821;50.936;6.854;2023-09-07T02:50:39;18.20;99.90
3614;DHT22;1821;50.936;6.854;2023-09-07T02:51:21;18.10;99.90
3614;DHT22;1821;50.936;6.854;2023-09-07T02:52:04;18.10;99.90
3614;DHT22;1821;50.936;6.854;2023-09-07T02:52:49;18.10;99.90
3614;DHT22;1821;50.936;6.854;2023-09-07T02:53:30;18.00;99.90
3614;DHT22;1821;50.936;6.854;2023-09-07T02:54:55;18.10;99.90
3614;DHT22;1821;50.936;6.854;2023-09-07T02:55:39;18.10;99.90
3614;DHT22;1821;50.936;6.854;2023-09-07T02:56:24;18.10;99.90
3614;DHT22;1821;50.936;6.854;2023-09-07T02:57:09;18.10;99.90
3614;DHT22;1821;50.936;6.854;2023-09-07T02:57:51;18.10;99.90
3614;DHT22;1821;50.936;6.854;2023-09-07T02:58:33;18.10;99.90
3614;DHT22;1821;50.936;6.854;2023-09-07T02:59:58;18.10;99.90
3614;DHT22;1821;50.936;6.854;2023-09-07T03:00:44;18.10;99.90
3614;DHT22;1821;50.936;6.854;2023-09-07T03:01:29;18.00;99.90
3614;DHT22;1821;50.936;6.854;2023-09-07T03:02:12;18.10;99.90
3614;DHT22;1821;50.936;6.854;2023-09-07T03:02:57;17.90;99.90
3614;DHT22;1821;50.936;6.854;2023-09-07T03:03:40;18.00;99.90
3614;DHT22;1821;50.936;6.854;2023-09-07T03:04:23;18.00;99.90
3614;DHT22;1821;50.936;6.854;2023-09-07T03:05:05;18.00;99.90
3614;DHT22;1821;50.936;6.854;2023-09-07T03:05:47;18.00;99.90
3614;DHT22;1821;50.936;6.854;2023-09-07T03:06:29;18.10;99.90
3614;DHT22;1821;50.936;6.854;2023-09-07T03:07:11;18.00;99.90
3614;DHT22;1821;50.936;6.854;2023-09-07T03:07:54;18.00;99.90
3614;DHT22;1821;50.936;6.854;2023-09-07T03:08:35;18.00;99.90
3614;DHT22;1821;50.936;6.854;2023-09-07T03:09:17;18.00;99.90
3614;DHT22;1821;50.936;6.854;2023-09-07T03:10:00;18.00;99.90
3614;DHT22;1821;50.936;6.854;2023-09-07T03:11:26;18.00;99.90
3614;DHT22;1821;50.936;6.854;2023-09-07T03:12:07;18.00;99.90
3614;DHT22;1821;50.936;6.854;2023-09-07T03:12:49;18.00;99.90
3614;DHT22;1821;50.936;6.854;2023-09-07T03:13:31;18.00;99.90
3614;DHT22;1821;50.936;6.854;2023-09-07T03:14:13;18.00;99.90
3614;DHT22;1821;50.936;6.854;2023-09-07T03:14:55;18.00;99.90
3614;DHT22;1821;50.936;6.854;2023-09-07T03:15:37;18.00;99.90
3614;DHT22;1821;50.936;6.854;2023-09-07T03:16:19;18.00;99.90
3614;DHT22;1821;50.936;6.854;2023-09-07T03:17:45;18.00;99.90
3614;DHT22;1821;50.936;6.854;2023-09-07T03:18:27;17.90;99.90
3614;DHT22;1821;50.936;6.854;2023-09-07T03:19:12;17.90;99.90
3614;DHT22;1821;50.936;6.854;2023-09-07T03:19:54;17.90;99.90
3614;DHT22;1821;50.936;6.854;2023-09-07T03:20:36;17.80;99.90
3614;DHT22;1821;50.936;6.854;2023-09-07T03:21:18;17.90;99.90
3614;DHT22;1821;50.936;6.854;2023-09-07T03:22:00;17.90;99.90
3614;DHT22;1821;50.936;6.854;2023-09-07T03:23:26;17.90;99.90
3614;DHT22;1821;50.936;6.854;2023-09-07T03:24:11;17.90;99.90
3614;DHT22;1821;50.936;6.854;2023-09-07T03:24:52;17.80;99.90
3614;DHT22;1821;50.936;6.854;2023-09-07T03:25:34;17.80;99.90
3614;DHT22;1821;50.936;6.854;2023-09-07T03:26:16;17.90;99.90
3614;DHT22;1821;50.936;6.854;2023-09-07T03:26:58;17.70;99.90
3614;DHT22;1821;50.936;6.854;2023-09-07T03:27:41;17.70;99.90
3614;DHT22;1821;50.936;6.854;2023-09-07T03:28:23;17.70;99.90
3614;DHT22;1821;50.936;6.854;2023-09-07T03:29:04;17.60;99.90
3614;DHT22;1821;50.936;6.854;2023-09-07T03:29:49;17.70;99.90
3614;DHT22;1821;50.936;6.854;2023-09-07T03:30:33;17.70;99.90
3614;DHT22;1821;50.936;6.854;2023-09-07T03:32:00;17.70;99.90
3614;DHT22;1821;50.936;6.854;2023-09-07T03:34:06;17.60;99.90
3614;DHT22;1821;50.936;6.854;2023-09-07T03:34:48;17.60;99.90
3614;DHT22;1821;50.936;6.854;2023-09-07T03:35:31;17.60;99.90
3614;DHT22;1821;50.936;6.854;2023-09-07T03:36:13;17.60;99.90
3614;DHT22;1821;50.936;6.854;2023-09-07T03:36:57;17.50;99.90
3614;DHT22;1821;50.936;6.854;2023-09-07T03:37:42;17.50;99.90
3614;DHT22;1821;50.936;6.854;2023-09-07T03:38:25;17.50;99.90
3614;DHT22;1821;50.936;6.854;2023-09-07T03:39:06;17.50;99.90
3614;DHT22;1821;50.936;6.854;2023-09-07T03:39:50;17.40;99.90
3614;DHT22;1821;50.936;6.854;2023-09-07T03:42:02;17.50;99.90
3614;DHT22;1821;50.936;6.854;2023-09-07T03:42:44;17.40;99.90
3614;DHT22;1821;50.936;6.854;2023-09-07T03:43:28;17.40;99.90
3614;DHT22;1821;50.936;6.854;2023-09-07T03:44:10;17.40;99.90
3614;DHT22;1821;50.936;6.854;2023-09-07T03:44:52;17.50;99.90
3614;DHT22;1821;50.936;6.854;2023-09-07T03:45:33;17.50;99.90
3614;DHT22;1821;50.936;6.854;2023-09-07T03:46:15;17.60;99.90
3614;DHT22;1821;50.936;6.854;2023-09-07T03:46:58;17.60;99.90
3614;DHT22;1821;50.936;6.854;2023-09-07T03:47:40;17.60;99.90
3614;DHT22;1821;50.936;6.854;2023-09-07T03:49:04;17.60;99.90
3614;DHT22;1821;50.936;6.854;2023-09-07T03:50:31;17.60;99.90
3614;DHT22;1821;50.936;6.854;2023-09-07T03:51:13;17.50;99.90
3614;DHT22;1821;50.936;6.854;2023-09-07T03:51:55;17.50;99.90
3614;DHT22;1821;50.936;6.854;2023-09-07T03:52:37;17.50;99.90
3614;DHT22;1821;50.936;6.854;2023-09-07T03:53:19;17.50;99.90
3614;DHT22;1821;50.936;6.854;2023-09-07T03:54:01;17.50;99.90
3614;DHT22;1821;50.936;6.854;2023-09-07T03:54:43;17.40;99.90
3614;DHT22;1821;50.936;6.854;2023-09-07T03:55:25;17.40;99.90
3614;DHT22;1821;50.936;6.854;2023-09-07T03:56:07;17.40;99.90
3614;DHT22;1821;50.936;6.854;2023-09-07T03:56:49;17.40;99.90
3614;DHT22;1821;50.936;6.854;2023-09-07T03:57:31;17.30;99.90
3614;DHT22;1821;50.936;6.854;2023-09-07T03:58:13;17.30;99.90
3614;DHT22;1821;50.936;6.854;2023-09-07T03:58:55;17.40;99.90
3614;DHT22;1821;50.936;6.854;2023-09-07T03:59:37;17.40;99.90
3614;DHT22;1821;50.936;6.854;2023-09-07T04:00:21;17.30;99.90
3614;DHT22;1821;50.936;6.854;2023-09-07T04:01:53;17.30;99.90
3614;DHT22;1821;50.936;6.854;2023-09-07T04:02:36;17.30;99.90
3614;DHT22;1821;50.936;6.854;2023-09-07T04:03:19;17.30;99.90
3614;DHT22;1821;50.936;6.854;2023-09-07T04:04:01;17.30;99.90
3614;DHT22;1821;50.936;6.854;2023-09-07T04:04:54;17.30;99.90
3614;DHT22;1821;50.936;6.854;2023-09-07T04:05:39;17.30;99.90
3614;DHT22;1821;50.936;6.854;2023-09-07T04:06:21;17.30;99.90
3614;DHT22;1821;50.936;6.854;2023-09-07T04:07:08;17.20;99.90
3614;DHT22;1821;50.936;6.854;2023-09-07T04:07:50;17.30;99.90
3614;DHT22;1821;50.936;6.854;2023-09-07T04:08:32;17.30;99.90
3614;DHT22;1821;50.936;6.854;2023-09-07T04:09:14;17.40;99.90
3614;DHT22;1821;50.936;6.854;2023-09-07T04:09:56;17.30;99.90
3614;DHT22;1821;50.936;6.854;2023-09-07T04:10:39;17.40;99.90
3614;DHT22;1821;50.936;6.854;2023-09-07T04:11:21;17.40;99.90
3614;DHT22;1821;50.936;6.854;2023-09-07T04:12:03;17.40;99.90
3614;DHT22;1821;50.936;6.854;2023-09-07T04:14:10;17.40;99.90
3614;DHT22;1821;50.936;6.854;2023-09-07T04:15:41;17.30;99.90
3614;DHT22;1821;50.936;6.854;2023-09-07T04:17:06;17.30;99.90
3614;DHT22;1821;50.936;6.854;2023-09-07T04:17:50;17.30;99.90
3614;DHT22;1821;50.936;6.854;2023-09-07T04:18:32;17.10;99.90
3614;DHT22;1821;50.936;6.854;2023-09-07T04:19:15;17.30;99.90
3614;DHT22;1821;50.936;6.854;2023-09-07T04:19:57;17.20;99.90
3614;DHT22;1821;50.936;6.854;2023-09-07T04:20:39;17.20;99.90
3614;DHT22;1821;50.936;6.854;2023-09-07T04:21:24;17.30;99.90
3614;DHT22;1821;50.936;6.854;2023-09-07T04:22:06;17.20;99.90
3614;DHT22;1821;50.936;6.854;2023-09-07T04:22:50;17.10;99.90
3614;DHT22;1821;50.936;6.854;2023-09-07T04:23:33;17.10;99.90
3614;DHT22;1821;50.936;6.854;2023-09-07T04:24:19;17.20;99.90
3614;DHT22;1821;50.936;6.854;2023-09-07T04:25:01;17.20;99.90
3614;DHT22;1821;50.936;6.854;2023-09-07T04:26:25;17.20;99.90
3614;DHT22;1821;50.936;6.854;2023-09-07T04:27:08;17.20;99.90
3614;DHT22;1821;50.936;6.854;2023-09-07T04:27:49;17.10;99.90
3614;DHT22;1821;50.936;6.854;2023-09-07T04:29:14;17.20;99.90
3614;DHT22;1821;50.936;6.854;2023-09-07T04:29:56;17.20;99.90
3614;DHT22;1821;50.936;6.854;2023-09-07T04:31:20;17.20;99.90
3614;DHT22;1821;50.936;6.854;2023-09-07T04:32:03;17.20;99.90
3614;DHT22;1821;50.936;6.854;2023-09-07T04:32:45;17.20;99.90
3614;DHT22;1821;50.936;6.854;2023-09-07T04:33:30;17.20;99.90
3614;DHT22;1821;50.936;6.854;2023-09-07T04:34:56;17.10;99.90
3614;DHT22;1821;50.936;6.854;2023-09-07T04:35:38;17.20;99.90
3614;DHT22;1821;50.936;6.854;2023-09-07T04:36:19;17.20;99.90
3614;DHT22;1821;50.936;6.854;2023-09-07T04:37:01;17.20;99.90
3614;DHT22;1821;50.936;6.854;2023-09-07T04:37:44;17.20;99.90
3614;DHT22;1821;50.936;6.854;2023-09-07T04:38:29;17.20;99.90
3614;DHT22;1821;50.936;6.854;2023-09-07T04:39:55;17.10;99.90
3614;DHT22;1821;50.936;6.854;2023-09-07T04:40:37;17.10;99.90
3614;DHT22;1821;50.936;6.854;2023-09-07T04:41:20;17.10;99.90
3614;DHT22;1821;50.936;6.854;2023-09-07T04:42:02;17.10;99.90
3614;DHT22;1821;50.936;6.854;2023-09-07T04:42:43;17.10;99.90
3614;DHT22;1821;50.936;6.854;2023-09-07T04:43:25;17.10;99.90
3614;DHT22;1821;50.936;6.854;2023-09-07T04:44:07;17.00;99.90
3614;DHT22;1821;50.936;6.854;2023-09-07T04:45:32;17.00;99.90
3614;DHT22;1821;50.936;6.854;2023-09-07T04:46:57;16.90;99.90
3614;DHT22;1821;50.936;6.854;2023-09-07T04:47:39;16.80;99.90
3614;DHT22;1821;50.936;6.854;2023-09-07T04:48:21;16.80;99.90
3614;DHT22;1821;50.936;6.854;2023-09-07T04:49:03;16.80;99.90
3614;DHT22;1821;50.936;6.854;2023-09-07T04:49:53;16.70;99.90
3614;DHT22;1821;50.936;6.854;2023-09-07T04:51:19;16.70;99.90
3614;DHT22;1821;50.936;6.854;2023-09-07T04:52:03;16.70;99.90
3614;DHT22;1821;50.936;6.854;2023-09-07T04:54:11;16.60;99.90
3614;DHT22;1821;50.936;6.854;2023-09-07T04:54:53;16.60;99.90
3614;DHT22;1821;50.936;6.854;2023-09-07T04:55:38;16.60;99.90
3614;DHT22;1821;50.936;6.854;2023-09-07T04:56:22;16.60;99.90
3614;DHT22;1821;50.936;6.854;2023-09-07T04:57:07;16.60;99.90
3614;DHT22;1821;50.936;6.854;2023-09-07T04:58:32;16.60;99.90
3614;DHT22;1821;50.936;6.854;2023-09-07T04:59:15;16.50;99.90
3614;DHT22;1821;50.936;6.854;2023-09-07T04:59:57;16.60;99.90
3614;DHT22;1821;50.936;6.854;2023-09-07T05:00:39;16.60;99.90
3614;DHT22;1821;50.936;6.854;2023-09-07T05:01:21;16.60;99.90
3614;DHT22;1821;50.936;6.854;2023-09-07T05:02:03;16.60;99.90
3614;DHT22;1821;50.936;6.854;2023-09-07T05:02:45;16.60;99.90
3614;DHT22;1821;50.936;6.854;2023-09-07T05:06:18;16.60;99.90
3614;DHT22;1821;50.936;6.854;2023-09-07T05:07:01;16.80;99.90
3614;DHT22;1821;50.936;6.854;2023-09-07T05:07:42;16.60;99.90
3614;DHT22;1821;50.936;6.854;2023-09-07T05:08:25;16.60;99.90
3614;DHT22;1821;50.936;6.854;2023-09-07T05:09:07;16.60;99.90
3614;DHT22;1821;50.936;6.854;2023-09-07T05:09:48;16.50;99.90
3614;DHT22;1821;50.936;6.854;2023-09-07T05:10:33;16.60;99.90
3614;DHT22;1821;50.936;6.854;2023-09-07T05:11:58;16.50;99.90
3614;DHT22;1821;50.936;6.854;2023-09-07T05:12:40;16.60;99.90
3614;DHT22;1821;50.936;6.854;2023-09-07T05:14:05;16.50;99.90
3614;DHT22;1821;50.936;6.854;2023-09-07T05:14:47;16.50;99.90
3614;DHT22;1821;50.936;6.854;2023-09-07T05:16:11;16.50;99.90
3614;DHT22;1821;50.936;6.854;2023-09-07T05:16:54;16.40;99.90
3614;DHT22;1821;50.936;6.854;2023-09-07T05:17:38;16.40;99.90
3614;DHT22;1821;50.936;6.854;2023-09-07T05:18:20;16.50;99.90
3614;DHT22;1821;50.936;6.854;2023-09-07T05:19:02;16.50;99.90
3614;DHT22;1821;50.936;6.854;2023-09-07T05:21:16;16.50;99.90
3614;DHT22;1821;50.936;6.854;2023-09-07T05:22:40;16.60;99.90
3614;DHT22;1821;50.936;6.854;2023-09-07T05:23:22;16.60;99.90
3614;DHT22;1821;50.936;6.854;2023-09-07T05:24:06;16.60;99.90
3614;DHT22;1821;50.936;6.854;2023-09-07T05:24:48;16.60;99.90
3614;DHT22;1821;50.936;6.854;2023-09-07T05:25:30;16.60;99.90
3614;DHT22;1821;50.936;6.854;2023-09-07T05:26:55;16.50;99.90
3614;DHT22;1821;50.936;6.854;2023-09-07T05:27:37;16.50;99.90
3614;DHT22;1821;50.936;6.854;2023-09-07T05:29:02;16.60;99.90
3614;DHT22;1821;50.936;6.854;2023-09-07T05:29:44;16.60;99.90
3614;DHT22;1821;50.936;6.854;2023-09-07T05:30:26;16.60;99.90
3614;DHT22;1821;50.936;6.854;2023-09-07T05:31:11;16.50;99.90
3614;DHT22;1821;50.936;6.854;2023-09-07T05:31:53;16.50;99.90
3614;DHT22;1821;50.936;6.854;2023-09-07T05:32:35;16.50;99.90
3614;DHT22;1821;50.936;6.854;2023-09-07T05:33:17;16.60;99.90
3614;DHT22;1821;50.936;6.854;2023-09-07T05:34:00;16.60;99.90
3614;DHT22;1821;50.936;6.854;2023-09-07T05:36:10;16.60;99.90
3614;DHT22;1821;50.936;6.854;2023-09-07T05:37:38;16.70;99.90
3614;DHT22;1821;50.936;6.854;2023-09-07T05:38:20;16.70;99.90
3614;DHT22;1821;50.936;6.854;2023-09-07T05:39:02;16.70;99.90
3614;DHT22;1821;50.936;6.854;2023-09-07T05:40:37;16.60;99.90